createdAt,value
2019-02-08T00:02:57.026Z,75.19
2019-02-08T00:08:00.420Z,74.91
2019-02-08T00:13:04.078Z,75.06
2019-02-08T00:18:07.467Z,74.91
2019-02-08T00:23:10.871Z,75.36
2019-02-08T00:28:14.403Z,75.45
2019-02-08T00:33:17.803Z,74.77
2019-02-08T00:38:21.318Z,75.19
2019-02-08T00:43:24.720Z,75.14
2019-02-08T00:48:28.108Z,75.24
2019-02-08T00:53:33.487Z,74.93
2019-02-08T00:58:34.927Z,75.42
2019-02-08T01:03:38.513Z,75.14
2019-02-08T01:08:41.955Z,75.35
2019-02-08T01:13:45.450Z,75.75
2019-02-08T01:18:48.889Z,75.98
2019-02-08T01:23:52.282Z,76.04
2019-02-08T01:28:55.720Z,75.96
2019-02-08T01:33:59.337Z,76.07
2019-02-08T01:39:03.065Z,75.96
2019-02-08T01:44:06.549Z,75.93
2019-02-08T01:49:10.064Z,76.12
2019-02-08T01:54:13.463Z,76.25
2019-02-08T01:59:16.895Z,76.21
2019-02-08T02:04:20.291Z,76.20
2019-02-08T02:09:23.823Z,76.33
2019-02-08T02:14:27.296Z,76.53
2019-02-08T02:19:30.877Z,76.41
2019-02-08T02:24:34.391Z,76.71
2019-02-08T02:29:37.808Z,76.60
2019-02-08T02:34:41.237Z,76.45
2019-02-08T02:39:44.677Z,76.65
2019-02-08T02:44:48.072Z,76.61
2019-02-08T02:49:51.681Z,76.73
2019-02-08T02:54:55.081Z,76.73
2019-02-08T02:59:58.649Z,76.40
2019-02-08T03:05:02.163Z,76.37
2019-02-08T03:10:06.345Z,76.45
2019-02-08T03:15:10.819Z,76.49
2019-02-08T03:20:15.619Z,76.58
2019-02-08T03:25:20.749Z,76.25
2019-02-08T03:30:35.892Z,76.20
2019-02-08T03:35:39.407Z,76.15
2019-02-08T03:40:42.828Z,76.25
2019-02-08T03:45:47.132Z,76.18
2019-02-08T03:50:50.529Z,76.21
2019-02-08T03:55:58.270Z,76.06
2019-02-08T04:01:01.081Z,75.88
2019-02-08T04:06:04.637Z,75.73
2019-02-08T04:11:08.115Z,75.68
2019-02-08T04:16:11.510Z,75.77
2019-02-08T04:21:14.983Z,75.72
2019-02-08T04:26:18.386Z,75.86
2019-02-08T04:31:22.080Z,75.88
2019-02-08T04:36:26.598Z,75.79
2019-02-08T04:41:30.090Z,75.67
2019-02-08T04:46:33.584Z,75.63
2019-02-08T04:51:36.977Z,75.75
2019-02-08T04:56:40.440Z,75.61
2019-02-08T05:01:43.935Z,75.65
2019-02-08T05:06:47.335Z,75.54
2019-02-08T05:11:50.747Z,75.57
2019-02-08T05:16:54.168Z,75.69
2019-02-08T05:21:57.633Z,75.35
2019-02-08T05:27:01.038Z,75.27
2019-02-08T05:32:04.494Z,75.29
2019-02-08T05:37:07.926Z,75.33
2019-02-08T05:42:11.428Z,75.34
2019-02-08T05:47:14.864Z,75.45
2019-02-08T05:52:18.264Z,75.42
2019-02-08T05:57:21.692Z,75.58
2019-02-08T06:02:25.127Z,75.50
2019-02-08T06:07:32.684Z,75.38
2019-02-08T06:12:36.084Z,75.16
2019-02-08T06:17:40.502Z,75.30
2019-02-08T06:22:43.921Z,75.52
2019-02-08T06:27:47.389Z,75.58
2019-02-08T06:32:50.878Z,75.48
2019-02-08T06:37:54.353Z,75.29
2019-02-08T06:42:57.925Z,75.21
2019-02-08T06:48:01.532Z,74.98
2019-02-08T06:53:05.023Z,75.08
2019-02-08T06:58:19.074Z,74.93
2019-02-08T07:03:29.542Z,74.84
2019-02-08T07:08:40.045Z,74.76
2019-02-08T07:13:50.574Z,74.80
2019-02-08T07:19:00.254Z,74.79
2019-02-08T07:24:24.808Z,75.01
2019-02-08T07:29:41.453Z,74.75
2019-02-08T07:35:05.972Z,74.80
2019-02-08T07:40:20.403Z,74.84
2019-02-08T07:45:30.807Z,75.05
2019-02-08T07:56:08.230Z,75.20
2019-02-08T08:01:22.589Z,74.71
2019-02-08T08:06:33.779Z,74.80
2019-02-08T08:11:42.228Z,74.64
2019-02-08T08:16:50.406Z,74.66
2019-02-08T08:24:02.997Z,74.38
2019-02-08T08:29:11.940Z,73.92
2019-02-08T08:34:24.296Z,74.17
2019-02-08T08:39:42.424Z,73.95
2019-02-08T08:46:01.213Z,74.11
2019-02-08T08:51:18.030Z,73.98
2019-02-08T08:58:46.216Z,73.88
2019-02-08T09:04:06.035Z,74.07
2019-02-08T09:09:25.674Z,74.50
2019-02-08T09:14:40.819Z,74.34
2019-02-08T09:19:58.758Z,73.65
2019-02-08T09:27:13.288Z,74.05
2019-02-08T09:32:55.155Z,73.89
2019-02-08T09:38:07.398Z,73.63
2019-02-08T09:43:21.729Z,73.28
2019-02-08T09:48:37.904Z,73.48
2019-02-08T09:54:00.850Z,73.38
2019-02-08T09:59:16.060Z,72.74
2019-02-08T10:04:30.024Z,72.89
2019-02-08T10:09:50.199Z,72.91
2019-02-08T10:15:06.385Z,73.02
2019-02-08T10:20:24.771Z,72.60
2019-02-08T10:27:44.968Z,72.21
2019-02-08T10:32:59.183Z,71.93
2019-02-08T10:38:13.190Z,71.48
2019-02-08T10:43:27.692Z,71.44
2019-02-08T10:48:41.831Z,71.72
2019-02-08T10:54:29.752Z,71.40
2019-02-08T11:00:48.699Z,69.29
2019-02-08T11:10:11.207Z,69.70
2019-02-08T11:15:26.059Z,69.84
2019-02-08T11:20:29.290Z,69.91
2019-02-08T11:25:32.482Z,69.26
2019-02-08T11:30:35.695Z,70.33
2019-02-08T11:35:38.862Z,71.15
2019-02-08T11:40:42.106Z,70.90
2019-02-08T11:45:45.307Z,71.37
2019-02-08T11:50:48.531Z,71.68
2019-02-08T11:55:51.813Z,71.68
2019-02-08T12:00:56.762Z,71.12
2019-02-08T12:05:59.996Z,71.22
2019-02-08T12:11:03.193Z,70.21
2019-02-08T12:16:06.393Z,69.67
2019-02-08T12:21:09.596Z,69.68
2019-02-08T12:26:12.769Z,69.30
2019-02-08T12:31:15.994Z,69.23
2019-02-08T12:36:19.194Z,67.93
2019-02-08T12:41:22.478Z,67.96
2019-02-08T12:46:25.799Z,67.84
2019-02-08T12:51:29.083Z,67.48
2019-02-08T12:56:32.351Z,68.17
2019-02-08T13:01:37.766Z,68.12
2019-02-08T13:06:38.878Z,67.86
2019-02-08T13:11:42.246Z,66.58
2019-02-08T13:16:45.466Z,67.29
2019-02-08T13:21:48.852Z,66.54
2019-02-08T13:26:53.063Z,66.03
2019-02-08T13:31:55.338Z,66.75
2019-02-08T13:36:58.622Z,66.05
2019-02-08T13:42:01.881Z,66.02
2019-02-08T13:47:05.144Z,65.08
2019-02-08T13:52:08.491Z,65.21
2019-02-08T13:57:11.819Z,65.52
2019-02-08T14:02:15.203Z,65.09
2019-02-08T14:07:18.518Z,64.87
2019-02-08T14:12:21.822Z,64.26
2019-02-08T14:17:25.118Z,64.74
2019-02-08T14:22:28.399Z,62.63
2019-02-08T14:27:31.682Z,63.02
2019-02-08T14:32:35.049Z,63.57
2019-02-08T14:37:39.069Z,63.81
2019-02-08T14:42:42.436Z,63.72
2019-02-08T14:47:45.770Z,64.10
2019-02-08T14:52:49.168Z,62.93
2019-02-08T14:57:52.803Z,64.07
2019-02-08T15:02:56.134Z,63.72
2019-02-08T15:07:59.461Z,64.71
2019-02-08T15:13:02.727Z,64.96
2019-02-08T15:18:06.139Z,65.36
2019-02-08T15:23:09.462Z,66.06
2019-02-08T15:28:12.746Z,67.22
2019-02-08T15:33:16.118Z,67.41
2019-02-08T15:38:19.486Z,67.83
2019-02-08T15:43:23.619Z,67.72
2019-02-08T15:48:27.055Z,68.36
2019-02-08T15:53:30.371Z,68.70
2019-02-08T15:58:33.852Z,69.14
2019-02-08T16:03:37.549Z,69.32
2019-02-08T16:08:40.963Z,69.06
2019-02-08T16:13:44.267Z,69.73
2019-02-08T16:18:47.637Z,69.60
2019-02-08T16:23:50.922Z,71.11
2019-02-08T16:28:54.251Z,70.83
2019-02-08T16:33:57.672Z,70.79
2019-02-08T16:39:01.037Z,70.71
2019-02-08T16:44:04.621Z,70.29
2019-02-08T16:49:07.944Z,69.96
2019-02-08T16:54:11.265Z,70.99
2019-02-08T16:59:14.552Z,71.33
2019-02-08T17:04:17.824Z,71.72
2019-02-08T17:09:21.179Z,71.08
2019-02-08T17:14:24.482Z,71.68
2019-02-08T17:19:27.795Z,71.30
2019-02-08T17:24:31.103Z,70.98
2019-02-08T17:29:34.419Z,70.68
2019-02-08T17:34:37.707Z,70.64
2019-02-08T17:39:41.053Z,70.77
2019-02-08T17:44:44.428Z,71.68
2019-02-08T17:49:47.915Z,70.97
2019-02-08T17:54:51.269Z,71.29
2019-02-08T17:59:54.689Z,70.75
2019-02-08T18:04:58.263Z,70.88
2019-02-08T18:10:01.591Z,71.11
2019-02-08T18:15:05.900Z,70.48
2019-02-08T18:20:14.861Z,70.85
2019-02-08T18:25:18.199Z,70.82
2019-02-08T18:30:21.861Z,71.12
2019-02-08T18:35:26.026Z,71.08
2019-02-08T18:40:29.482Z,70.84
2019-02-08T18:45:33.945Z,71.73
2019-02-08T18:50:40.729Z,73.01
2019-02-08T18:55:44.129Z,71.74
2019-02-08T19:00:49.518Z,71.72
2019-02-08T19:05:52.955Z,71.73
2019-02-08T19:10:56.485Z,72.81
2019-02-08T19:15:59.816Z,72.11
2019-02-08T19:21:03.181Z,71.95
2019-02-08T19:26:06.586Z,72.98
2019-02-08T19:31:09.991Z,72.49
2019-02-08T19:36:13.450Z,72.23
2019-02-08T19:41:16.883Z,73.42
2019-02-08T19:46:20.495Z,73.51
2019-02-08T19:51:23.965Z,74.48
2019-02-08T19:56:27.353Z,73.70
2019-02-08T20:01:31.781Z,73.64
2019-02-08T20:06:35.320Z,73.18
2019-02-08T20:11:38.717Z,73.19
2019-02-08T20:16:42.049Z,73.43
2019-02-08T20:21:46.045Z,73.78
2019-02-08T20:26:49.461Z,73.36
2019-02-08T20:31:53.030Z,73.25
2019-02-08T20:36:56.558Z,72.94
2019-02-08T20:42:00.915Z,73.21
2019-02-08T20:47:04.421Z,73.50
2019-02-08T20:52:08.047Z,73.20
2019-02-08T20:57:11.437Z,73.22
2019-02-08T21:02:14.839Z,72.94
2019-02-08T21:07:18.143Z,73.43
2019-02-08T21:12:21.470Z,73.55
2019-02-08T21:17:24.805Z,73.71
2019-02-08T21:22:28.098Z,73.66
2019-02-08T21:27:31.394Z,73.40
2019-02-08T21:32:34.795Z,73.44
2019-02-08T21:37:38.328Z,73.29
2019-02-08T21:42:41.659Z,73.28
2019-02-08T21:47:45.065Z,73.38
2019-02-08T21:52:48.467Z,73.03
2019-02-08T21:57:51.778Z,73.34
2019-02-08T22:02:55.342Z,73.04
2019-02-08T22:07:58.712Z,73.47
2019-02-08T22:13:02.410Z,73.30
2019-02-08T22:18:06.542Z,73.39
2019-02-08T22:23:10.163Z,73.47
2019-02-08T22:28:13.415Z,73.72
2019-02-08T22:33:16.670Z,73.40
2019-02-08T22:38:20.082Z,73.31
2019-02-08T22:43:23.324Z,73.35
2019-02-08T22:48:26.595Z,72.87
2019-02-08T22:53:29.779Z,72.91
2019-02-08T22:58:32.975Z,72.91
2019-02-08T23:03:37.240Z,73.02
2019-02-08T23:08:40.449Z,73.22
2019-02-08T23:13:43.730Z,72.89
2019-02-08T23:18:46.907Z,72.73
2019-02-08T23:23:50.130Z,72.84
2019-02-08T23:28:53.341Z,72.62
2019-02-08T23:33:56.499Z,72.85
2019-02-08T23:38:59.683Z,72.60
2019-02-08T23:44:02.850Z,72.44
2019-02-08T23:49:06.041Z,73.04
2019-02-08T23:54:09.219Z,73.02
2019-02-08T23:59:12.480Z,73.06
